This is the latest recevied weather packets stored in our database for station/object OK1LPD-5. If no packets are shown the sender has not sent any weather packets the latest 10 day(s).
| Time | Temp. | Humidity | Pressure | Rain* | Wind** | Luminosity | Snow |
|---|---|---|---|---|---|---|---|
| 1777881609 | 20.56° C | 65% | 1010.2 hPa | 0 mm | - | - | - |
| 1777881009 | 20.56° C | 66% | 1010.1 hPa | 0 mm | - | - | - |
| 1777880409 | 19.44° C | 70% | 1010.3 hPa | 0 mm | - | - | - |
| 1777879809 | 17.22° C | 79% | 1010.4 hPa | 0 mm | - | - | - |
| 1777879209 | 16.67° C | 80% | 1010.5 hPa | 0 mm | - | - | - |
| 1777878608 | 16.11° C | 83% | 1010.7 hPa | 0 mm | - | - | - |
| 1777878010 | 15.56° C | 84% | 1010.6 hPa | 0 mm | - | - | - |
| 1777877409 | 15° C | 84% | 1010.8 hPa | 0 mm | - | - | - |
| 1777876809 | 15° C | 87% | 1010.8 hPa | 0 mm | - | - | - |
| 1777876209 | 14.44° C | 87% | 1010.8 hPa | 0 mm | - | - | - |
| 1777875609 | 14.44° C | 89% | 1010.8 hPa | 0 mm | - | - | - |
| 1777875013 | 13.89° C | 92% | 1010.7 hPa | 0 mm | - | - | - |
| 1777874412 | 12.78° C | 97% | 1010.7 hPa | 0 mm | - | - | - |
| 1777873809 | 11.67° C | 97% | 1010.7 hPa | 0 mm | - | - | - |
| 1777873211 | 11.11° C | 97% | 1010.7 hPa | 0 mm | - | - | - |
| 1777872611 | 10.56° C | 97% | 1010.6 hPa | 0 mm | - | - | - |
| 1777872008 | 10.56° C | 97% | 1010.5 hPa | 0 mm | - | - | - |
| 1777871412 | 10.56° C | 98% | 1010.6 hPa | 0 mm | - | - | - |
| 1777870812 | 10° C | 98% | 1010.4 hPa | 0 mm | - | - | - |
| 1777870209 | 9.44° C | 99% | 1010.4 hPa | 0 mm | - | - | - |
| 1777869611 | 9.44° C | 98% | 1010.3 hPa | 0 mm | - | - | - |
| 1777869011 | 8.89° C | 97% | 1010.3 hPa | 0 mm | - | - | - |
| 1777868409 | 8.89° C | 97% | 1010.1 hPa | 0 mm | - | - | - |
| 1777867812 | 8.33° C | 96% | 1010 hPa | 0 mm | - | - | - |
| 1777867211 | 8.89° C | 96% | 1009.9 hPa | 0 mm | - | - | - |
* Rain latest hour (hover to see other rain measurements)
** Current wind speed in m/s (hover to see current wind gust speed)